sensor_id;sensor_type;location;lat;lon;timestamp;P1;durP1;ratioP1;P2;durP2;ratioP2
29662;SDS011;16578;53.266;7.920;2022-09-09T00:04:42;8.02;;;7.22;;
29662;SDS011;16578;53.266;7.920;2022-09-09T00:07:45;7.82;;;6.60;;
29662;SDS011;16578;53.266;7.920;2022-09-09T00:10:16;8.52;;;7.28;;
29662;SDS011;16578;53.266;7.920;2022-09-09T00:15:42;7.95;;;7.22;;
29662;SDS011;16578;53.266;7.920;2022-09-09T00:18:24;9.85;;;7.07;;
29662;SDS011;16578;53.266;7.920;2022-09-09T00:21:02;8.27;;;7.57;;
29662;SDS011;16578;53.266;7.920;2022-09-09T00:26:13;8.05;;;7.25;;
29662;SDS011;16578;53.266;7.920;2022-09-09T00:31:37;8.70;;;7.63;;
29662;SDS011;16578;53.266;7.920;2022-09-09T00:36:38;8.95;;;8.05;;
29662;SDS011;16578;53.266;7.920;2022-09-09T00:39:05;10.18;;;8.27;;
29662;SDS011;16578;53.266;7.920;2022-09-09T00:49:30;11.05;;;9.95;;
29662;SDS011;16578;53.266;7.920;2022-09-09T00:52:19;11.13;;;10.05;;
29662;SDS011;16578;53.266;7.920;2022-09-09T00:57:35;13.50;;;10.48;;
29662;SDS011;16578;53.266;7.920;2022-09-09T01:11:21;11.95;;;10.75;;
29662;SDS011;16578;53.266;7.920;2022-09-09T01:13:52;12.23;;;10.85;;
29662;SDS011;16578;53.266;7.920;2022-09-09T01:16:54;12.10;;;10.10;;
29662;SDS011;16578;53.266;7.920;2022-09-09T01:19:27;11.13;;;10.00;;
29662;SDS011;16578;53.266;7.920;2022-09-09T01:22:26;11.40;;;10.30;;
29662;SDS011;16578;53.266;7.920;2022-09-09T01:25:19;10.75;;;9.65;;
29662;SDS011;16578;53.266;7.920;2022-09-09T01:27:46;11.43;;;10.07;;
29662;SDS011;16578;53.266;7.920;2022-09-09T01:32:45;9.70;;;8.68;;
29662;SDS011;16578;53.266;7.920;2022-09-09T01:37:56;10.32;;;9.27;;
29662;SDS011;16578;53.266;7.920;2022-09-09T01:40:23;9.82;;;8.82;;
29662;SDS011;16578;53.266;7.920;2022-09-09T01:42:49;9.90;;;8.85;;
29662;SDS011;16578;53.266;7.920;2022-09-09T01:45:16;10.05;;;9.05;;
29662;SDS011;16578;53.266;7.920;2022-09-09T01:47:41;11.45;;;9.50;;
29662;SDS011;16578;53.266;7.920;2022-09-09T01:50:08;10.65;;;9.55;;
29662;SDS011;16578;53.266;7.920;2022-09-09T01:52:38;10.43;;;9.27;;
29662;SDS011;16578;53.266;7.920;2022-09-09T01:55:04;9.32;;;8.43;;
29662;SDS011;16578;53.266;7.920;2022-09-09T01:57:33;11.20;;;9.07;;
29662;SDS011;16578;53.266;7.920;2022-09-09T02:00:21;10.43;;;8.68;;
29662;SDS011;16578;53.266;7.920;2022-09-09T02:08:40;8.82;;;8.02;;
29662;SDS011;16578;53.266;7.920;2022-09-09T02:11:20;9.27;;;8.30;;
29662;SDS011;16578;53.266;7.920;2022-09-09T02:13:50;9.77;;;8.75;;
29662;SDS011;16578;53.266;7.920;2022-09-09T02:19:25;10.60;;;9.40;;
29662;SDS011;16578;53.266;7.920;2022-09-09T02:21:57;10.25;;;9.25;;
29662;SDS011;16578;53.266;7.920;2022-09-09T02:26:52;9.57;;;8.68;;
29662;SDS011;16578;53.266;7.920;2022-09-09T02:29:25;11.13;;;9.40;;
29662;SDS011;16578;53.266;7.920;2022-09-09T02:31:55;10.20;;;9.18;;
29662;SDS011;16578;53.266;7.920;2022-09-09T02:34:24;10.13;;;9.20;;
29662;SDS011;16578;53.266;7.920;2022-09-09T02:36:52;12.45;;;9.70;;
29662;SDS011;16578;53.266;7.920;2022-09-09T02:39:20;10.75;;;9.65;;
29662;SDS011;16578;53.266;7.920;2022-09-09T02:41:46;13.55;;;10.40;;
29662;SDS011;16578;53.266;7.920;2022-09-09T02:44:13;10.43;;;9.32;;
29662;SDS011;16578;53.266;7.920;2022-09-09T02:52:54;11.73;;;8.88;;
29662;SDS011;16578;53.266;7.920;2022-09-09T02:55:04;10.70;;;9.60;;
29662;SDS011;16578;53.266;7.920;2022-09-09T02:57:51;11.57;;;8.70;;
29662;SDS011;16578;53.266;7.920;2022-09-09T03:00:27;11.18;;;9.05;;
29662;SDS011;16578;53.266;7.920;2022-09-09T03:02:53;9.07;;;8.18;;
29662;SDS011;16578;53.266;7.920;2022-09-09T03:05:19;9.57;;;8.60;;
29662;SDS011;16578;53.266;7.920;2022-09-09T03:07:45;11.63;;;8.80;;
29662;SDS011;16578;53.266;7.920;2022-09-09T03:10:11;9.93;;;8.55;;
29662;SDS011;16578;53.266;7.920;2022-09-09T03:12:37;9.25;;;8.35;;
29662;SDS011;16578;53.266;7.920;2022-09-09T03:15:03;9.43;;;8.25;;
29662;SDS011;16578;53.266;7.920;2022-09-09T03:17:29;9.35;;;8.38;;
29662;SDS011;16578;53.266;7.920;2022-09-09T03:19:55;8.88;;;8.02;;
29662;SDS011;16578;53.266;7.920;2022-09-09T03:22:22;9.50;;;8.07;;
29662;SDS011;16578;53.266;7.920;2022-09-09T03:24:48;9.63;;;8.50;;
29662;SDS011;16578;53.266;7.920;2022-09-09T03:27:14;8.60;;;7.80;;
29662;SDS011;16578;53.266;7.920;2022-09-09T03:29:39;9.65;;;8.02;;
29662;SDS011;16578;53.266;7.920;2022-09-09T03:32:05;9.93;;;8.07;;
29662;SDS011;16578;53.266;7.920;2022-09-09T03:34:31;9.32;;;8.38;;
29662;SDS011;16578;53.266;7.920;2022-09-09T03:36:56;9.80;;;7.88;;
29662;SDS011;16578;53.266;7.920;2022-09-09T03:39:22;10.27;;;9.02;;
29662;SDS011;16578;53.266;7.920;2022-09-09T03:41:47;9.82;;;8.93;;
29662;SDS011;16578;53.266;7.920;2022-09-09T03:44:13;16.15;;;8.45;;
29662;SDS011;16578;53.266;7.920;2022-09-09T03:46:39;10.80;;;8.60;;
29662;SDS011;16578;53.266;7.920;2022-09-09T03:49:05;13.43;;;8.90;;
29662;SDS011;16578;53.266;7.920;2022-09-09T03:51:31;8.57;;;7.75;;
29662;SDS011;16578;53.266;7.920;2022-09-09T03:53:56;9.90;;;8.90;;
29662;SDS011;16578;53.266;7.920;2022-09-09T03:56:23;9.02;;;8.18;;
29662;SDS011;16578;53.266;7.920;2022-09-09T03:58:49;8.45;;;7.70;;
29662;SDS011;16578;53.266;7.920;2022-09-09T04:01:14;9.00;;;8.00;;
29662;SDS011;16578;53.266;7.920;2022-09-09T04:03:42;12.05;;;8.25;;
29662;SDS011;16578;53.266;7.920;2022-09-09T04:06:10;9.60;;;8.13;;
29662;SDS011;16578;53.266;7.920;2022-09-09T04:08:38;8.90;;;8.10;;
29662;SDS011;16578;53.266;7.920;2022-09-09T04:11:05;9.98;;;8.40;;
29662;SDS011;16578;53.266;7.920;2022-09-09T04:13:31;9.98;;;8.95;;
29662;SDS011;16578;53.266;7.920;2022-09-09T04:15:59;9.20;;;7.83;;
29662;SDS011;16578;53.266;7.920;2022-09-09T04:18:26;10.07;;;8.10;;
29662;SDS011;16578;53.266;7.920;2022-09-09T04:20:53;9.25;;;8.30;;
29662;SDS011;16578;53.266;7.920;2022-09-09T04:23:20;9.15;;;8.25;;
29662;SDS011;16578;53.266;7.920;2022-09-09T04:25:47;10.95;;;8.50;;
29662;SDS011;16578;53.266;7.920;2022-09-09T04:28:14;10.50;;;8.70;;
29662;SDS011;16578;53.266;7.920;2022-09-09T04:30:40;9.55;;;8.05;;
29662;SDS011;16578;53.266;7.920;2022-09-09T04:33:07;8.93;;;8.02;;
29662;SDS011;16578;53.266;7.920;2022-09-09T04:35:34;9.52;;;7.72;;
29662;SDS011;16578;53.266;7.920;2022-09-09T04:38:00;10.10;;;7.95;;
29662;SDS011;16578;53.266;7.920;2022-09-09T04:40:27;9.52;;;7.95;;
29662;SDS011;16578;53.266;7.920;2022-09-09T04:42:54;7.88;;;7.03;;
29662;SDS011;16578;53.266;7.920;2022-09-09T04:45:20;9.35;;;7.35;;
29662;SDS011;16578;53.266;7.920;2022-09-09T04:47:45;8.85;;;6.70;;
29662;SDS011;16578;53.266;7.920;2022-09-09T04:50:11;10.27;;;7.65;;
29662;SDS011;16578;53.266;7.920;2022-09-09T04:52:37;11.50;;;7.47;;
29662;SDS011;16578;53.266;7.920;2022-09-09T04:55:03;8.55;;;7.65;;
29662;SDS011;16578;53.266;7.920;2022-09-09T04:57:29;7.97;;;7.07;;
29662;SDS011;16578;53.266;7.920;2022-09-09T04:59:57;9.00;;;8.10;;
29662;SDS011;16578;53.266;7.920;2022-09-09T05:02:24;9.43;;;6.70;;
29662;SDS011;16578;53.266;7.920;2022-09-09T05:04:51;7.82;;;7.03;;
29662;SDS011;16578;53.266;7.920;2022-09-09T05:07:16;9.93;;;7.13;;
29662;SDS011;16578;53.266;7.920;2022-09-09T05:09:42;8.65;;;7.07;;
29662;SDS011;16578;53.266;7.920;2022-09-09T05:12:07;9.73;;;6.85;;
29662;SDS011;16578;53.266;7.920;2022-09-09T05:14:33;9.10;;;7.00;;
29662;SDS011;16578;53.266;7.920;2022-09-09T05:17:01;11.60;;;7.57;;
29662;SDS011;16578;53.266;7.920;2022-09-09T05:19:26;9.82;;;7.07;;
29662;SDS011;16578;53.266;7.920;2022-09-09T05:21:52;7.63;;;6.53;;
29662;SDS011;16578;53.266;7.920;2022-09-09T05:24:17;9.13;;;6.65;;
29662;SDS011;16578;53.266;7.920;2022-09-09T05:26:43;13.75;;;7.13;;
29662;SDS011;16578;53.266;7.920;2022-09-09T05:29:09;9.85;;;6.72;;
29662;SDS011;16578;53.266;7.920;2022-09-09T05:31:34;9.63;;;6.38;;
29662;SDS011;16578;53.266;7.920;2022-09-09T05:34:00;15.85;;;6.40;;
29662;SDS011;16578;53.266;7.920;2022-09-09T05:36:26;8.38;;;6.70;;
29662;SDS011;16578;53.266;7.920;2022-09-09T05:38:51;7.50;;;6.75;;
29662;SDS011;16578;53.266;7.920;2022-09-09T05:41:18;7.00;;;6.28;;
29662;SDS011;16578;53.266;7.920;2022-09-09T05:43:45;7.30;;;6.65;;
29662;SDS011;16578;53.266;7.920;2022-09-09T05:46:22;8.65;;;6.57;;
29662;SDS011;16578;53.266;7.920;2022-09-09T05:48:49;6.93;;;5.88;;
29662;SDS011;16578;53.266;7.920;2022-09-09T05:51:20;6.97;;;6.22;;
29662;SDS011;16578;53.266;7.920;2022-09-09T05:53:48;9.00;;;6.30;;
29662;SDS011;16578;53.266;7.920;2022-09-09T05:56:21;9.85;;;5.97;;
29662;SDS011;16578;53.266;7.920;2022-09-09T05:58:50;6.50;;;5.80;;
29662;SDS011;16578;53.266;7.920;2022-09-09T06:01:24;9.20;;;6.30;;
29662;SDS011;16578;53.266;7.920;2022-09-09T06:03:52;7.47;;;5.75;;
29662;SDS011;16578;53.266;7.920;2022-09-09T06:06:21;6.20;;;5.40;;
29662;SDS011;16578;53.266;7.920;2022-09-09T06:08:51;6.85;;;5.72;;
29662;SDS011;16578;53.266;7.920;2022-09-09T06:11:18;7.10;;;6.07;;
29662;SDS011;16578;53.266;7.920;2022-09-09T06:13:46;9.48;;;6.13;;
29662;SDS011;16578;53.266;7.920;2022-09-09T06:16:13;8.27;;;5.78;;
29662;SDS011;16578;53.266;7.920;2022-09-09T06:18:41;6.10;;;5.50;;
29662;SDS011;16578;53.266;7.920;2022-09-09T06:21:09;7.55;;;5.75;;
29662;SDS011;16578;53.266;7.920;2022-09-09T06:23:39;6.10;;;5.53;;
29662;SDS011;16578;53.266;7.920;2022-09-09T06:26:13;6.68;;;5.65;;
29662;SDS011;16578;53.266;7.920;2022-09-09T06:28:47;6.82;;;5.03;;
29662;SDS011;16578;53.266;7.920;2022-09-09T06:31:15;5.95;;;5.38;;
29662;SDS011;16578;53.266;7.920;2022-09-09T06:33:42;6.95;;;5.00;;
29662;SDS011;16578;53.266;7.920;2022-09-09T06:36:16;5.43;;;4.68;;
29662;SDS011;16578;53.266;7.920;2022-09-09T06:38:50;7.13;;;4.85;;
29662;SDS011;16578;53.266;7.920;2022-09-09T06:41:16;4.95;;;4.45;;
29662;SDS011;16578;53.266;7.920;2022-09-09T06:43:44;5.05;;;4.57;;
29662;SDS011;16578;53.266;7.920;2022-09-09T06:46:20;5.70;;;4.25;;
29662;SDS011;16578;53.266;7.920;2022-09-09T06:48:47;12.70;;;5.78;;
29662;SDS011;16578;53.266;7.920;2022-09-09T06:53:46;5.43;;;4.40;;
29662;SDS011;16578;53.266;7.920;2022-09-09T06:58:41;8.70;;;4.22;;
29662;SDS011;16578;53.266;7.920;2022-09-09T07:01:12;6.03;;;4.25;;
29662;SDS011;16578;53.266;7.920;2022-09-09T07:03:39;4.33;;;3.80;;
29662;SDS011;16578;53.266;7.920;2022-09-09T07:06:05;18.23;;;4.45;;
29662;SDS011;16578;53.266;7.920;2022-09-09T07:08:32;6.53;;;4.38;;
29662;SDS011;16578;53.266;7.920;2022-09-09T07:11:02;4.32;;;3.92;;
29662;SDS011;16578;53.266;7.920;2022-09-09T07:13:29;4.60;;;4.00;;
29662;SDS011;16578;53.266;7.920;2022-09-09T07:16:02;5.82;;;3.95;;
29662;SDS011;16578;53.266;7.920;2022-09-09T07:18:31;5.20;;;4.10;;
29662;SDS011;16578;53.266;7.920;2022-09-09T07:20:58;4.43;;;3.58;;
29662;SDS011;16578;53.266;7.920;2022-09-09T07:23:24;5.45;;;4.35;;
29662;SDS011;16578;53.266;7.920;2022-09-09T07:25:49;7.13;;;4.40;;
29662;SDS011;16578;53.266;7.920;2022-09-09T07:28:16;5.40;;;4.32;;
29662;SDS011;16578;53.266;7.920;2022-09-09T07:30:42;6.45;;;4.68;;
29662;SDS011;16578;53.266;7.920;2022-09-09T07:33:08;4.68;;;4.22;;
29662;SDS011;16578;53.266;7.920;2022-09-09T07:35:34;5.00;;;4.00;;
29662;SDS011;16578;53.266;7.920;2022-09-09T07:38:02;5.00;;;4.35;;
29662;SDS011;16578;53.266;7.920;2022-09-09T07:40:29;5.77;;;4.30;;
29662;SDS011;16578;53.266;7.920;2022-09-09T07:42:55;5.00;;;4.13;;
29662;SDS011;16578;53.266;7.920;2022-09-09T07:45:21;4.25;;;3.85;;
29662;SDS011;16578;53.266;7.920;2022-09-09T07:47:46;4.43;;;4.03;;
29662;SDS011;16578;53.266;7.920;2022-09-09T07:50:13;6.07;;;4.53;;
29662;SDS011;16578;53.266;7.920;2022-09-09T07:52:40;5.03;;;4.53;;
29662;SDS011;16578;53.266;7.920;2022-09-09T07:55:06;5.50;;;5.00;;
29662;SDS011;16578;53.266;7.920;2022-09-09T07:57:31;5.88;;;4.80;;
29662;SDS011;16578;53.266;7.920;2022-09-09T07:59:57;5.38;;;4.82;;
29662;SDS011;16578;53.266;7.920;2022-09-09T08:02:23;6.40;;;5.00;;
29662;SDS011;16578;53.266;7.920;2022-09-09T08:04:50;6.75;;;5.50;;
29662;SDS011;16578;53.266;7.920;2022-09-09T08:07:16;9.57;;;4.78;;
29662;SDS011;16578;53.266;7.920;2022-09-09T08:09:42;5.95;;;5.13;;
29662;SDS011;16578;53.266;7.920;2022-09-09T08:12:09;8.38;;;6.03;;
29662;SDS011;16578;53.266;7.920;2022-09-09T08:14:38;7.63;;;6.70;;
29662;SDS011;16578;53.266;7.920;2022-09-09T08:17:05;7.50;;;6.25;;
29662;SDS011;16578;53.266;7.920;2022-09-09T08:19:30;9.82;;;7.65;;
29662;SDS011;16578;53.266;7.920;2022-09-09T08:21:59;8.50;;;7.70;;
29662;SDS011;16578;53.266;7.920;2022-09-09T08:24:26;9.37;;;8.40;;
29662;SDS011;16578;53.266;7.920;2022-09-09T08:26:52;10.45;;;8.05;;
29662;SDS011;16578;53.266;7.920;2022-09-09T08:29:18;8.30;;;7.50;;
29662;SDS011;16578;53.266;7.920;2022-09-09T08:31:55;10.02;;;7.95;;
29662;SDS011;16578;53.266;7.920;2022-09-09T08:34:22;7.10;;;6.35;;
29662;SDS011;16578;53.266;7.920;2022-09-09T08:36:50;7.53;;;6.82;;
29662;SDS011;16578;53.266;7.920;2022-09-09T08:39:17;7.80;;;6.22;;
29662;SDS011;16578;53.266;7.920;2022-09-09T08:55:13;7.82;;;4.90;;
29662;SDS011;16578;53.266;7.920;2022-09-09T08:57:46;7.47;;;4.97;;
29662;SDS011;16578;53.266;7.920;2022-09-09T09:00:18;5.93;;;4.50;;
29662;SDS011;16578;53.266;7.920;2022-09-09T09:08:32;7.05;;;5.25;;
29662;SDS011;16578;53.266;7.920;2022-09-09T09:11:19;7.53;;;5.15;;
29662;SDS011;16578;53.266;7.920;2022-09-09T09:18:57;6.38;;;5.10;;
29662;SDS011;16578;53.266;7.920;2022-09-09T09:21:45;6.78;;;4.47;;
29662;SDS011;16578;53.266;7.920;2022-09-09T09:24:23;4.43;;;3.83;;
29662;SDS011;16578;53.266;7.920;2022-09-09T09:26:59;5.82;;;4.00;;
29662;SDS011;16578;53.266;7.920;2022-09-09T09:29:32;5.53;;;3.90;;
29662;SDS011;16578;53.266;7.920;2022-09-09T09:31:59;6.40;;;3.80;;
29662;SDS011;16578;53.266;7.920;2022-09-09T09:34:28;5.80;;;4.30;;
29662;SDS011;16578;53.266;7.920;2022-09-09T09:36:54;6.57;;;3.75;;
29662;SDS011;16578;53.266;7.920;2022-09-09T09:39:26;5.07;;;3.45;;
29662;SDS011;16578;53.266;7.920;2022-09-09T09:42:22;4.25;;;2.85;;
29662;SDS011;16578;53.266;7.920;2022-09-09T09:44:47;3.35;;;2.63;;
29662;SDS011;16578;53.266;7.920;2022-09-09T09:49:52;3.88;;;2.65;;
29662;SDS011;16578;53.266;7.920;2022-09-09T09:52:21;7.65;;;3.35;;
29662;SDS011;16578;53.266;7.920;2022-09-09T09:54:55;5.78;;;3.17;;
29662;SDS011;16578;53.266;7.920;2022-09-09T09:57:24;5.28;;;2.85;;
29662;SDS011;16578;53.266;7.920;2022-09-09T10:00:04;5.25;;;3.20;;
29662;SDS011;16578;53.266;7.920;2022-09-09T10:02:45;4.18;;;3.00;;
29662;SDS011;16578;53.266;7.920;2022-09-09T10:05:13;5.65;;;2.53;;
29662;SDS011;16578;53.266;7.920;2022-09-09T10:07:45;3.63;;;2.20;;
29662;SDS011;16578;53.266;7.920;2022-09-09T10:10:13;3.05;;;2.45;;
29662;SDS011;16578;53.266;7.920;2022-09-09T10:13:06;3.95;;;2.88;;
29662;SDS011;16578;53.266;7.920;2022-09-09T10:35:27;6.68;;;2.70;;
29662;SDS011;16578;53.266;7.920;2022-09-09T10:38:03;4.28;;;2.35;;
29662;SDS011;16578;53.266;7.920;2022-09-09T10:43:20;4.57;;;2.22;;
29662;SDS011;16578;53.266;7.920;2022-09-09T10:48:46;4.82;;;2.30;;
29662;SDS011;16578;53.266;7.920;2022-09-09T10:56:56;6.35;;;2.42;;
29662;SDS011;16578;53.266;7.920;2022-09-09T10:59:29;4.65;;;1.77;;
29662;SDS011;16578;53.266;7.920;2022-09-09T11:02:00;5.53;;;2.10;;
29662;SDS011;16578;53.266;7.920;2022-09-09T11:05:21;4.88;;;1.85;;
29662;SDS011;16578;53.266;7.920;2022-09-09T11:07:47;2.88;;;1.45;;
29662;SDS011;16578;53.266;7.920;2022-09-09T11:12:43;4.90;;;2.10;;
29662;SDS011;16578;53.266;7.920;2022-09-09T11:17:44;4.75;;;1.77;;
29662;SDS011;16578;53.266;7.920;2022-09-09T11:20:18;3.58;;;1.70;;
29662;SDS011;16578;53.266;7.920;2022-09-09T11:22:45;4.53;;;1.92;;
29662;SDS011;16578;53.266;7.920;2022-09-09T11:36:23;3.45;;;2.03;;
29662;SDS011;16578;53.266;7.920;2022-09-09T11:42:05;5.95;;;1.85;;
29662;SDS011;16578;53.266;7.920;2022-09-09T11:44:51;4.63;;;2.10;;
29662;SDS011;16578;53.266;7.920;2022-09-09T11:49:51;4.35;;;1.77;;
29662;SDS011;16578;53.266;7.920;2022-09-09T11:54:50;4.97;;;2.15;;
29662;SDS011;16578;53.266;7.920;2022-09-09T11:57:26;6.35;;;1.90;;
29662;SDS011;16578;53.266;7.920;2022-09-09T11:59:58;4.93;;;2.08;;
29662;SDS011;16578;53.266;7.920;2022-09-09T12:02:25;4.03;;;1.70;;
29662;SDS011;16578;53.266;7.920;2022-09-09T12:05:04;3.95;;;1.65;;
29662;SDS011;16578;53.266;7.920;2022-09-09T12:10:19;7.90;;;2.08;;
29662;SDS011;16578;53.266;7.920;2022-09-09T12:15:56;8.05;;;2.35;;
29662;SDS011;16578;53.266;7.920;2022-09-09T12:23:37;9.25;;;3.08;;
29662;SDS011;16578;53.266;7.920;2022-09-09T12:26:21;5.32;;;2.70;;
29662;SDS011;16578;53.266;7.920;2022-09-09T12:29:05;6.25;;;2.33;;
29662;SDS011;16578;53.266;7.920;2022-09-09T12:31:54;5.13;;;2.28;;
29662;SDS011;16578;53.266;7.920;2022-09-09T12:34:29;8.48;;;2.50;;
29662;SDS011;16578;53.266;7.920;2022-09-09T12:39:55;6.57;;;2.92;;
29662;SDS011;16578;53.266;7.920;2022-09-09T12:42:23;6.10;;;2.90;;
29662;SDS011;16578;53.266;7.920;2022-09-09T12:44:51;6.35;;;3.13;;
29662;SDS011;16578;53.266;7.920;2022-09-09T12:47:22;7.75;;;3.35;;
29662;SDS011;16578;53.266;7.920;2022-09-09T12:49:53;6.50;;;2.47;;
29662;SDS011;16578;53.266;7.920;2022-09-09T12:52:29;6.65;;;2.60;;
29662;SDS011;16578;53.266;7.920;2022-09-09T12:54:58;6.80;;;2.38;;
29662;SDS011;16578;53.266;7.920;2022-09-09T12:57:29;6.10;;;2.70;;
29662;SDS011;16578;53.266;7.920;2022-09-09T13:00:10;5.15;;;2.65;;
29662;SDS011;16578;53.266;7.920;2022-09-09T13:02:49;4.93;;;2.22;;
29662;SDS011;16578;53.266;7.920;2022-09-09T13:05:17;5.13;;;2.00;;
29662;SDS011;16578;53.266;7.920;2022-09-09T13:07:48;3.50;;;2.28;;
29662;SDS011;16578;53.266;7.920;2022-09-09T13:10:14;7.28;;;2.95;;
29662;SDS011;16578;53.266;7.920;2022-09-09T13:12:47;4.75;;;2.42;;
29662;SDS011;16578;53.266;7.920;2022-09-09T13:15:22;4.03;;;2.38;;
29662;SDS011;16578;53.266;7.920;2022-09-09T13:17:58;5.93;;;3.00;;
29662;SDS011;16578;53.266;7.920;2022-09-09T13:20:29;6.57;;;3.40;;
29662;SDS011;16578;53.266;7.920;2022-09-09T13:22:55;6.05;;;3.30;;
29662;SDS011;16578;53.266;7.920;2022-09-09T13:25:26;7.15;;;3.28;;
29662;SDS011;16578;53.266;7.920;2022-09-09T13:30:42;7.63;;;3.70;;
29662;SDS011;16578;53.266;7.920;2022-09-09T13:38:15;3.63;;;3.03;;
29662;SDS011;16578;53.266;7.920;2022-09-09T13:40:51;4.35;;;3.22;;
29662;SDS011;16578;53.266;7.920;2022-09-09T13:43:22;4.80;;;3.30;;
29662;SDS011;16578;53.266;7.920;2022-09-09T13:45:57;5.47;;;3.70;;
29662;SDS011;16578;53.266;7.920;2022-09-09T13:48:28;6.32;;;3.75;;
29662;SDS011;16578;53.266;7.920;2022-09-09T13:50:55;5.18;;;3.47;;
29662;SDS011;16578;53.266;7.920;2022-09-09T13:53:25;5.88;;;3.47;;
29662;SDS011;16578;53.266;7.920;2022-09-09T13:55:51;3.97;;;2.75;;
29662;SDS011;16578;53.266;7.920;2022-09-09T13:58:17;4.72;;;3.22;;
29662;SDS011;16578;53.266;7.920;2022-09-09T14:00:44;5.07;;;2.92;;
29662;SDS011;16578;53.266;7.920;2022-09-09T14:03:11;9.32;;;3.85;;
29662;SDS011;16578;53.266;7.920;2022-09-09T14:05:37;5.82;;;3.22;;
29662;SDS011;16578;53.266;7.920;2022-09-09T14:08:03;3.72;;;2.90;;
29662;SDS011;16578;53.266;7.920;2022-09-09T14:10:30;4.90;;;3.17;;
29662;SDS011;16578;53.266;7.920;2022-09-09T14:12:56;3.85;;;2.38;;
29662;SDS011;16578;53.266;7.920;2022-09-09T14:15:21;6.20;;;2.90;;
29662;SDS011;16578;53.266;7.920;2022-09-09T14:17:47;3.55;;;2.50;;
29662;SDS011;16578;53.266;7.920;2022-09-09T14:20:13;5.45;;;2.95;;
29662;SDS011;16578;53.266;7.920;2022-09-09T14:22:42;3.60;;;2.83;;
29662;SDS011;16578;53.266;7.920;2022-09-09T14:25:09;4.95;;;3.08;;
29662;SDS011;16578;53.266;7.920;2022-09-09T14:27:34;2.80;;;2.53;;
29662;SDS011;16578;53.266;7.920;2022-09-09T14:30:00;5.60;;;3.42;;
29662;SDS011;16578;53.266;7.920;2022-09-09T14:32:25;4.70;;;3.00;;
29662;SDS011;16578;53.266;7.920;2022-09-09T14:34:52;5.72;;;3.60;;
29662;SDS011;16578;53.266;7.920;2022-09-09T14:37:17;4.35;;;3.22;;
29662;SDS011;16578;53.266;7.920;2022-09-09T14:39:43;7.88;;;4.60;;
29662;SDS011;16578;53.266;7.920;2022-09-09T14:42:12;6.53;;;3.70;;
29662;SDS011;16578;53.266;7.920;2022-09-09T14:44:38;6.40;;;3.50;;
29662;SDS011;16578;53.266;7.920;2022-09-09T14:47:07;6.35;;;4.40;;
29662;SDS011;16578;53.266;7.920;2022-09-09T14:49:34;7.50;;;4.05;;
29662;SDS011;16578;53.266;7.920;2022-09-09T14:52:00;7.28;;;4.65;;
29662;SDS011;16578;53.266;7.920;2022-09-09T14:54:25;6.43;;;4.25;;
29662;SDS011;16578;53.266;7.920;2022-09-09T14:56:51;7.88;;;5.07;;
29662;SDS011;16578;53.266;7.920;2022-09-09T14:59:17;9.27;;;5.45;;
29662;SDS011;16578;53.266;7.920;2022-09-09T15:01:42;5.55;;;4.18;;
29662;SDS011;16578;53.266;7.920;2022-09-09T15:04:10;5.75;;;4.72;;
29662;SDS011;16578;53.266;7.920;2022-09-09T15:06:39;7.57;;;5.20;;
29662;SDS011;16578;53.266;7.920;2022-09-09T15:09:07;12.02;;;5.38;;
29662;SDS011;16578;53.266;7.920;2022-09-09T15:11:34;8.55;;;5.22;;
29662;SDS011;16578;53.266;7.920;2022-09-09T15:14:05;5.65;;;3.75;;
29662;SDS011;16578;53.266;7.920;2022-09-09T15:16:32;8.80;;;3.65;;
29662;SDS011;16578;53.266;7.920;2022-09-09T15:18:58;5.50;;;3.20;;
29662;SDS011;16578;53.266;7.920;2022-09-09T15:21:26;6.23;;;3.20;;
29662;SDS011;16578;53.266;7.920;2022-09-09T15:23:54;5.82;;;3.35;;
29662;SDS011;16578;53.266;7.920;2022-09-09T15:26:20;6.95;;;3.05;;
29662;SDS011;16578;53.266;7.920;2022-09-09T15:28:46;6.10;;;3.53;;
29662;SDS011;16578;53.266;7.920;2022-09-09T15:31:20;6.82;;;3.15;;
29662;SDS011;16578;53.266;7.920;2022-09-09T15:33:50;5.15;;;3.10;;
29662;SDS011;16578;53.266;7.920;2022-09-09T15:36:25;5.38;;;2.75;;
29662;SDS011;16578;53.266;7.920;2022-09-09T15:38:52;3.53;;;2.65;;
29662;SDS011;16578;53.266;7.920;2022-09-09T15:41:18;7.78;;;3.60;;
29662;SDS011;16578;53.266;7.920;2022-09-09T15:43:46;6.05;;;3.47;;
29662;SDS011;16578;53.266;7.920;2022-09-09T15:46:21;7.97;;;3.72;;
29662;SDS011;16578;53.266;7.920;2022-09-09T15:48:49;8.45;;;3.47;;
29662;SDS011;16578;53.266;7.920;2022-09-09T15:51:15;5.85;;;3.33;;
29662;SDS011;16578;53.266;7.920;2022-09-09T15:53:41;7.22;;;3.90;;
29662;SDS011;16578;53.266;7.920;2022-09-09T15:56:07;4.53;;;3.28;;
29662;SDS011;16578;53.266;7.920;2022-09-09T15:58:33;6.20;;;3.58;;
29662;SDS011;16578;53.266;7.920;2022-09-09T16:01:10;6.17;;;3.23;;
29662;SDS011;16578;53.266;7.920;2022-09-09T16:03:39;6.55;;;3.10;;
29662;SDS011;16578;53.266;7.920;2022-09-09T16:06:07;5.22;;;3.47;;
29662;SDS011;16578;53.266;7.920;2022-09-09T16:08:37;5.63;;;3.90;;
29662;SDS011;16578;53.266;7.920;2022-09-09T16:11:06;4.78;;;3.17;;
29662;SDS011;16578;53.266;7.920;2022-09-09T16:13:37;6.93;;;4.05;;
29662;SDS011;16578;53.266;7.920;2022-09-09T16:16:07;7.88;;;3.72;;
29662;SDS011;16578;53.266;7.920;2022-09-09T16:18:38;6.65;;;3.92;;
29662;SDS011;16578;53.266;7.920;2022-09-09T16:21:05;7.18;;;3.85;;
29662;SDS011;16578;53.266;7.920;2022-09-09T16:23:35;3.95;;;2.83;;
29662;SDS011;16578;53.266;7.920;2022-09-09T16:26:01;6.80;;;3.60;;
29662;SDS011;16578;53.266;7.920;2022-09-09T16:28:27;6.43;;;3.70;;
29662;SDS011;16578;53.266;7.920;2022-09-09T16:30:53;3.15;;;2.85;;
29662;SDS011;16578;53.266;7.920;2022-09-09T16:33:18;4.85;;;3.70;;
29662;SDS011;16578;53.266;7.920;2022-09-09T16:35:44;5.07;;;3.75;;
29662;SDS011;16578;53.266;7.920;2022-09-09T16:38:14;8.65;;;3.95;;
29662;SDS011;16578;53.266;7.920;2022-09-09T16:40:40;5.07;;;3.08;;
29662;SDS011;16578;53.266;7.920;2022-09-09T16:43:06;8.82;;;3.20;;
29662;SDS011;16578;53.266;7.920;2022-09-09T16:45:32;6.97;;;3.75;;
29662;SDS011;16578;53.266;7.920;2022-09-09T16:47:59;5.95;;;3.55;;
29662;SDS011;16578;53.266;7.920;2022-09-09T16:50:25;5.70;;;3.28;;
29662;SDS011;16578;53.266;7.920;2022-09-09T16:52:55;6.75;;;3.75;;
29662;SDS011;16578;53.266;7.920;2022-09-09T16:55:21;7.15;;;4.00;;
29662;SDS011;16578;53.266;7.920;2022-09-09T16:57:46;5.60;;;3.42;;
29662;SDS011;16578;53.266;7.920;2022-09-09T17:00:15;6.13;;;3.40;;
29662;SDS011;16578;53.266;7.920;2022-09-09T17:02:43;6.93;;;3.70;;
29662;SDS011;16578;53.266;7.920;2022-09-09T17:05:10;5.30;;;3.60;;
29662;SDS011;16578;53.266;7.920;2022-09-09T17:07:37;7.20;;;3.85;;
29662;SDS011;16578;53.266;7.920;2022-09-09T17:10:03;5.03;;;3.70;;
29662;SDS011;16578;53.266;7.920;2022-09-09T17:12:30;5.25;;;2.95;;
29662;SDS011;16578;53.266;7.920;2022-09-09T17:14:57;6.43;;;3.53;;
29662;SDS011;16578;53.266;7.920;2022-09-09T17:17:24;5.18;;;3.67;;
29662;SDS011;16578;53.266;7.920;2022-09-09T17:19:49;4.90;;;3.33;;
29662;SDS011;16578;53.266;7.920;2022-09-09T17:22:15;7.03;;;3.55;;
29662;SDS011;16578;53.266;7.920;2022-09-09T17:24:41;4.60;;;3.53;;
29662;SDS011;16578;53.266;7.920;2022-09-09T17:27:06;7.47;;;3.95;;
29662;SDS011;16578;53.266;7.920;2022-09-09T17:29:32;6.95;;;3.92;;
29662;SDS011;16578;53.266;7.920;2022-09-09T17:32:00;6.40;;;3.63;;
29662;SDS011;16578;53.266;7.920;2022-09-09T17:34:27;5.20;;;3.63;;
29662;SDS011;16578;53.266;7.920;2022-09-09T17:36:52;7.63;;;4.05;;
29662;SDS011;16578;53.266;7.920;2022-09-09T17:39:18;4.50;;;3.65;;
29662;SDS011;16578;53.266;7.920;2022-09-09T17:41:44;4.93;;;3.40;;
29662;SDS011;16578;53.266;7.920;2022-09-09T17:44:10;5.03;;;3.33;;
29662;SDS011;16578;53.266;7.920;2022-09-09T17:46:37;4.13;;;2.80;;